createdAt,value
2017-08-24T00:00:45.183Z,9.07
2017-08-24T00:03:11.603Z,9.60
2017-08-24T00:05:37.983Z,8.73
2017-08-24T00:08:04.487Z,10.20
2017-08-24T00:10:30.851Z,9.50
2017-08-24T00:12:57.314Z,9.83
2017-08-24T00:15:30.767Z,9.00
2017-08-24T00:17:57.139Z,9.17
2017-08-24T00:20:23.539Z,8.10
2017-08-24T00:22:50.019Z,9.93
2017-08-24T00:25:16.408Z,9.70
2017-08-24T00:27:42.811Z,9.93
2017-08-24T00:30:09.175Z,9.50
2017-08-24T00:32:36.707Z,10.63
2017-08-24T00:35:03.159Z,9.67
2017-08-24T00:37:29.560Z,9.30
2017-08-24T00:39:55.972Z,10.00
2017-08-24T00:42:23.432Z,9.70
2017-08-24T00:44:49.859Z,9.23
2017-08-24T00:47:16.252Z,8.90
2017-08-24T00:49:42.646Z,9.40
2017-08-24T00:52:09.095Z,9.47
2017-08-24T00:54:35.515Z,8.50
2017-08-24T00:57:01.941Z,9.83
2017-08-24T00:59:28.332Z,9.57
2017-08-24T01:01:54.875Z,9.27
2017-08-24T01:04:21.264Z,9.17
2017-08-24T01:06:47.677Z,10.10
2017-08-24T01:09:14.096Z,11.00
2017-08-24T01:11:40.519Z,8.77
2017-08-24T01:14:06.884Z,9.73
2017-08-24T01:16:33.279Z,8.77
2017-08-24T01:18:59.750Z,9.60
2017-08-24T01:21:26.317Z,8.87
2017-08-24T01:23:52.783Z,8.37
2017-08-24T01:26:19.198Z,8.80
2017-08-24T01:28:45.616Z,9.57
2017-08-24T01:31:13.107Z,7.90
2017-08-24T01:33:39.533Z,7.87
2017-08-24T01:36:05.907Z,8.03
2017-08-24T01:38:32.302Z,8.93
2017-08-24T01:40:58.687Z,8.90
2017-08-24T01:43:25.092Z,8.50
2017-08-24T01:45:51.496Z,7.93
2017-08-24T01:48:17.891Z,8.90
2017-08-24T01:50:44.412Z,9.10
2017-08-24T01:53:10.830Z,10.23
2017-08-24T01:55:37.256Z,8.80
2017-08-24T01:58:03.659Z,9.40
2017-08-24T02:00:30.086Z,8.00
2017-08-24T02:02:56.532Z,7.80
2017-08-24T02:05:22.918Z,10.73
2017-08-24T02:07:49.319Z,8.30
2017-08-24T02:10:15.696Z,8.67
2017-08-24T02:12:42.172Z,7.60
2017-08-24T02:15:08.544Z,10.07
2017-08-24T02:17:34.954Z,7.50
2017-08-24T02:20:01.372Z,9.20
2017-08-24T02:22:27.795Z,9.87
2017-08-24T02:24:54.189Z,8.63
2017-08-24T02:27:20.583Z,11.43
2017-08-24T02:29:46.968Z,8.73
2017-08-24T02:32:13.458Z,9.20
2017-08-24T02:34:39.841Z,8.30
2017-08-24T02:37:06.239Z,9.20
2017-08-24T02:39:32.613Z,9.93
2017-08-24T02:41:59.062Z,9.70
2017-08-24T02:44:25.463Z,8.93
2017-08-24T02:46:51.863Z,10.07
2017-08-24T02:49:18.247Z,10.33
2017-08-24T02:51:44.718Z,9.20
2017-08-24T02:54:11.092Z,11.10
2017-08-24T02:56:37.475Z,11.00
2017-08-24T02:59:03.856Z,10.07
2017-08-24T03:01:30.331Z,9.13
2017-08-24T03:03:56.720Z,9.80
2017-08-24T03:06:23.111Z,10.80
2017-08-24T03:08:49.507Z,9.60
2017-08-24T03:11:15.934Z,10.47
2017-08-24T03:13:42.350Z,10.87
2017-08-24T03:16:08.723Z,11.70
2017-08-24T03:18:35.127Z,10.83
2017-08-24T03:21:01.703Z,10.87
2017-08-24T03:23:28.075Z,10.77
2017-08-24T03:25:54.472Z,11.63
2017-08-24T03:28:20.842Z,9.20
2017-08-24T03:30:47.248Z,10.30
2017-08-24T03:33:13.758Z,10.10
2017-08-24T03:35:40.172Z,9.57
2017-08-24T03:38:06.596Z,8.53
2017-08-24T03:40:39.983Z,9.93
2017-08-24T03:43:06.441Z,10.07
2017-08-24T03:45:39.863Z,9.70
2017-08-24T03:48:06.276Z,9.87
2017-08-24T03:50:32.692Z,10.60
2017-08-24T03:53:00.156Z,9.87
2017-08-24T03:55:26.551Z,11.37
2017-08-24T03:57:52.971Z,9.90
2017-08-24T04:00:19.396Z,10.00
2017-08-24T04:02:45.872Z,10.83
2017-08-24T04:05:12.271Z,9.70
2017-08-24T04:07:38.677Z,11.40
2017-08-24T04:10:05.107Z,9.97
2017-08-24T04:12:31.546Z,10.97
2017-08-24T04:14:57.927Z,10.20
2017-08-24T04:17:24.340Z,10.33
2017-08-24T04:19:50.715Z,10.03
2017-08-24T04:22:17.136Z,10.80
2017-08-24T04:24:43.593Z,11.23
2017-08-24T04:27:09.996Z,11.57
2017-08-24T04:29:36.500Z,10.20
2017-08-24T04:32:02.991Z,10.00
2017-08-24T04:34:29.395Z,11.00
2017-08-24T04:36:55.795Z,10.50
2017-08-24T04:39:22.198Z,11.37
2017-08-24T04:41:48.708Z,10.70
2017-08-24T04:44:15.111Z,11.03
2017-08-24T04:46:41.783Z,10.10
2017-08-24T04:49:08.151Z,11.20
2017-08-24T04:51:34.631Z,10.10
2017-08-24T04:54:01.032Z,10.73
2017-08-24T04:56:27.407Z,11.67
2017-08-24T04:58:53.796Z,10.93
2017-08-24T05:01:20.278Z,11.73
2017-08-24T05:03:46.694Z,12.90
2017-08-24T05:06:13.279Z,12.00
2017-08-24T05:08:39.703Z,11.87
2017-08-24T05:11:06.117Z,13.10
2017-08-24T05:13:32.951Z,12.10
2017-08-24T05:15:59.387Z,12.07
2017-08-24T05:18:25.796Z,13.10
2017-08-24T05:20:52.175Z,11.10
2017-08-24T05:23:18.620Z,11.57
2017-08-24T05:25:45.009Z,10.73
2017-08-24T05:28:11.399Z,12.53
2017-08-24T05:30:37.815Z,12.87
2017-08-24T05:33:04.267Z,14.50
2017-08-24T05:35:30.640Z,12.03
2017-08-24T05:37:57.063Z,11.80
2017-08-24T05:40:23.520Z,12.50
2017-08-24T05:42:49.920Z,16.83
2017-08-24T05:45:16.323Z,12.60
2017-08-24T05:47:42.737Z,11.90
2017-08-24T05:50:09.130Z,12.60
2017-08-24T05:52:35.583Z,13.40
2017-08-24T05:55:01.972Z,19.17
2017-08-24T05:57:28.372Z,15.63
2017-08-24T05:59:54.780Z,13.63
2017-08-24T06:02:21.221Z,13.50
2017-08-24T06:04:47.587Z,18.33
2017-08-24T06:07:14.000Z,13.70
2017-08-24T06:09:40.392Z,13.97
2017-08-24T06:12:06.923Z,12.30
2017-08-24T06:14:33.304Z,12.53
2017-08-24T06:16:59.691Z,12.70
2017-08-24T06:19:26.088Z,13.37
2017-08-24T06:21:52.519Z,13.57
2017-08-24T06:24:18.927Z,14.23
2017-08-24T06:26:45.351Z,12.40
2017-08-24T06:29:11.727Z,13.33
2017-08-24T06:31:38.096Z,12.43
2017-08-24T06:34:04.932Z,13.57
2017-08-24T06:36:31.480Z,16.30
2017-08-24T06:38:57.899Z,13.83
2017-08-24T06:41:24.449Z,14.13
2017-08-24T06:43:51.028Z,12.77
2017-08-24T06:46:17.415Z,14.37
2017-08-24T06:48:43.911Z,12.80
2017-08-24T06:51:10.299Z,12.53
2017-08-24T06:53:36.696Z,13.80
2017-08-24T06:56:03.147Z,13.13
2017-08-24T06:58:29.535Z,15.80
2017-08-24T07:00:55.920Z,16.30
2017-08-24T07:03:22.330Z,14.80
2017-08-24T07:05:48.704Z,15.33
2017-08-24T07:08:15.096Z,13.07
2017-08-24T07:10:41.483Z,13.47
2017-08-24T07:13:07.896Z,12.37
2017-08-24T07:15:34.321Z,12.37
2017-08-24T07:18:00.703Z,14.80
2017-08-24T07:20:27.090Z,12.47
2017-08-24T07:22:53.498Z,14.03
2017-08-24T07:25:19.931Z,13.70
2017-08-24T07:27:46.663Z,13.43
2017-08-24T07:30:13.104Z,13.10
2017-08-24T07:32:39.506Z,13.73
2017-08-24T07:35:05.928Z,14.47
2017-08-24T07:37:32.476Z,12.90
2017-08-24T07:39:58.859Z,14.20
2017-08-24T07:42:25.248Z,13.67
2017-08-24T07:44:51.646Z,12.13
2017-08-24T07:47:18.027Z,13.07
2017-08-24T07:49:44.399Z,12.10
2017-08-24T07:52:10.799Z,12.27
2017-08-24T07:54:37.219Z,14.93
2017-08-24T07:57:03.604Z,11.87
2017-08-24T07:59:29.983Z,13.70
2017-08-24T08:01:56.399Z,11.80
2017-08-24T08:04:22.803Z,12.50
2017-08-24T08:06:49.209Z,11.60
2017-08-24T08:09:15.570Z,13.00
2017-08-24T08:11:42.083Z,11.10
2017-08-24T08:14:08.472Z,13.63
2017-08-24T08:16:34.842Z,11.73
2017-08-24T08:19:01.354Z,13.17
2017-08-24T08:21:27.800Z,11.07
2017-08-24T08:23:54.222Z,11.83
2017-08-24T08:26:20.638Z,10.63
2017-08-24T08:28:47.027Z,11.20
2017-08-24T08:31:13.456Z,11.37
2017-08-24T08:33:39.839Z,11.50
2017-08-24T08:36:06.226Z,10.63
2017-08-24T08:38:32.644Z,12.83
2017-08-24T08:40:59.027Z,12.50
2017-08-24T08:43:25.474Z,11.40
2017-08-24T08:45:51.885Z,12.73
2017-08-24T08:48:18.280Z,11.00
2017-08-24T08:50:44.658Z,11.67
2017-08-24T08:53:11.074Z,12.40
2017-08-24T08:55:37.450Z,11.37
2017-08-24T08:58:03.836Z,10.43
2017-08-24T09:00:30.290Z,10.63
2017-08-24T09:02:56.659Z,11.33
2017-08-24T09:05:23.103Z,10.90
2017-08-24T09:07:49.499Z,13.93
2017-08-24T09:10:15.867Z,13.80
2017-08-24T09:12:42.296Z,12.57
2017-08-24T09:15:08.722Z,12.30
2017-08-24T09:17:35.135Z,11.97
2017-08-24T09:20:01.524Z,12.30
2017-08-24T09:22:27.923Z,14.37
2017-08-24T09:24:54.348Z,15.87
2017-08-24T09:27:20.730Z,14.20
2017-08-24T09:29:47.167Z,12.70
2017-08-24T09:32:13.572Z,12.93
2017-08-24T09:34:39.972Z,11.97
2017-08-24T09:37:06.379Z,12.27
2017-08-24T09:39:32.791Z,13.60
2017-08-24T09:41:59.208Z,12.20
2017-08-24T09:44:25.587Z,10.17
2017-08-24T09:46:51.991Z,10.50
2017-08-24T09:49:18.356Z,9.50
2017-08-24T09:51:44.763Z,9.97
2017-08-24T09:54:11.163Z,9.60
2017-08-24T09:56:37.579Z,10.33
2017-08-24T09:59:03.959Z,9.13
2017-08-24T10:01:30.334Z,8.47
2017-08-24T10:03:56.748Z,9.43
2017-08-24T10:06:23.188Z,9.00
2017-08-24T10:08:49.643Z,9.77
2017-08-24T10:11:16.088Z,9.80
2017-08-24T10:13:42.515Z,10.27
2017-08-24T10:16:08.968Z,9.00
2017-08-24T10:18:35.410Z,10.90
2017-08-24T10:21:01.822Z,8.40
2017-08-24T10:23:28.232Z,9.00
2017-08-24T10:25:54.611Z,10.43
2017-08-24T10:28:20.998Z,9.20
2017-08-24T10:30:47.515Z,8.73
2017-08-24T10:33:13.840Z,10.67
2017-08-24T10:35:40.215Z,9.13
2017-08-24T10:38:06.620Z,8.63
2017-08-24T10:40:33.002Z,8.37
2017-08-24T10:42:59.399Z,8.77
2017-08-24T10:45:25.803Z,8.00
2017-08-24T10:47:52.203Z,8.73
2017-08-24T10:50:18.591Z,7.87
2017-08-24T10:52:45.007Z,8.37
2017-08-24T10:55:11.427Z,9.60
2017-08-24T10:57:37.820Z,9.10
2017-08-24T11:00:04.253Z,8.00
2017-08-24T11:02:30.723Z,7.73
2017-08-24T11:04:57.987Z,9.30
2017-08-24T11:07:24.407Z,9.10
2017-08-24T11:09:50.799Z,8.83
2017-08-24T11:12:17.228Z,8.00
2017-08-24T11:14:43.606Z,8.40
2017-08-24T11:17:10.024Z,7.23
2017-08-24T11:19:36.399Z,9.40
2017-08-24T11:22:02.799Z,8.60
2017-08-24T11:24:29.187Z,7.70
2017-08-24T11:26:55.603Z,9.23
2017-08-24T11:29:21.995Z,8.77
2017-08-24T11:31:48.412Z,8.57
2017-08-24T11:34:14.835Z,9.13
2017-08-24T11:36:41.210Z,8.97
2017-08-24T11:39:07.615Z,9.00
2017-08-24T11:41:34.031Z,9.37
2017-08-24T11:44:00.415Z,9.67
2017-08-24T11:46:26.910Z,8.60
2017-08-24T11:48:53.269Z,7.87
2017-08-24T11:51:19.683Z,15.10
2017-08-24T11:53:46.083Z,8.07
2017-08-24T11:56:12.455Z,7.90
2017-08-24T11:58:38.842Z,8.60
2017-08-24T12:01:05.263Z,7.53
2017-08-24T12:03:31.634Z,6.97
2017-08-24T12:05:58.047Z,7.53
2017-08-24T12:08:24.415Z,7.33
2017-08-24T12:10:50.799Z,7.30
2017-08-24T12:13:17.227Z,8.37
2017-08-24T12:15:43.659Z,8.77
2017-08-24T12:18:10.065Z,7.23
2017-08-24T12:20:36.447Z,6.37
2017-08-24T12:23:02.906Z,7.23
2017-08-24T12:25:29.295Z,7.50
2017-08-24T12:27:55.675Z,7.17
2017-08-24T12:30:22.179Z,7.50
2017-08-24T12:32:48.583Z,6.87
2017-08-24T12:35:14.963Z,7.80
2017-08-24T12:37:41.374Z,6.83
2017-08-24T12:40:07.764Z,7.73
2017-08-24T12:42:34.191Z,6.67
2017-08-24T12:45:00.595Z,7.60
2017-08-24T12:47:27.031Z,9.37
2017-08-24T12:49:53.476Z,7.90
2017-08-24T12:52:19.929Z,6.03
2017-08-24T12:54:46.304Z,6.57
2017-08-24T12:57:12.708Z,6.75
2017-08-24T12:59:39.114Z,7.10
2017-08-24T13:02:05.498Z,7.13
2017-08-24T13:04:31.892Z,7.27
2017-08-24T13:06:58.367Z,6.50
2017-08-24T13:09:24.751Z,7.27
2017-08-24T13:11:51.166Z,8.03
2017-08-24T13:14:17.539Z,7.23
2017-08-24T13:16:44.310Z,7.40
2017-08-24T13:19:10.875Z,7.03
2017-08-24T13:21:37.272Z,7.33
2017-08-24T13:24:03.784Z,5.43
2017-08-24T13:26:30.188Z,6.57
2017-08-24T13:28:56.575Z,6.80
2017-08-24T13:31:22.991Z,5.77
2017-08-24T13:33:49.368Z,9.17
2017-08-24T13:36:15.736Z,6.77
2017-08-24T13:38:42.168Z,6.27
2017-08-24T13:41:08.587Z,5.33
2017-08-24T13:43:34.984Z,6.30
2017-08-24T13:46:01.378Z,6.00
2017-08-24T13:48:27.811Z,5.70
2017-08-24T13:50:54.194Z,5.70
2017-08-24T13:53:20.598Z,6.40
2017-08-24T13:55:46.977Z,5.43
2017-08-24T13:58:13.346Z,5.90
2017-08-24T14:00:39.754Z,5.70
2017-08-24T14:03:06.134Z,6.20
2017-08-24T14:05:32.532Z,5.47
2017-08-24T14:07:58.947Z,6.20
2017-08-24T14:10:25.323Z,5.80
2017-08-24T14:12:51.735Z,6.03
2017-08-24T14:15:18.139Z,7.60
2017-08-24T14:17:44.545Z,6.70
2017-08-24T14:20:10.934Z,7.00
2017-08-24T14:22:37.324Z,7.17
2017-08-24T14:25:03.732Z,6.43
2017-08-24T14:27:30.115Z,7.27
2017-08-24T14:29:56.500Z,6.50
2017-08-24T14:32:22.917Z,6.10
2017-08-24T14:34:49.316Z,7.47
2017-08-24T14:37:15.727Z,7.30
2017-08-24T14:39:42.112Z,7.10
2017-08-24T14:42:23.460Z,7.50
2017-08-24T14:44:49.873Z,7.30
2017-08-24T14:47:16.295Z,6.57
2017-08-24T14:49:42.683Z,8.30
2017-08-24T14:52:09.070Z,10.00
2017-08-24T14:54:35.447Z,8.20
2017-08-24T14:57:01.856Z,8.20
2017-08-24T14:59:28.244Z,7.10
2017-08-24T15:01:54.635Z,7.70
2017-08-24T15:04:21.030Z,7.90
2017-08-24T15:06:47.419Z,7.37
2017-08-24T15:09:13.800Z,8.10
2017-08-24T15:11:40.206Z,7.00
2017-08-24T15:14:06.595Z,8.03
2017-08-24T15:16:33.103Z,7.60
2017-08-24T15:18:59.503Z,7.47
2017-08-24T15:21:25.986Z,6.83
2017-08-24T15:23:52.529Z,7.90
2017-08-24T15:26:18.927Z,6.80
2017-08-24T15:28:45.375Z,7.53
2017-08-24T15:31:11.767Z,7.30
2017-08-24T15:33:38.199Z,8.30
2017-08-24T15:36:04.581Z,7.70
2017-08-24T15:38:31.008Z,7.87
2017-08-24T15:40:57.390Z,7.00
2017-08-24T15:43:23.810Z,7.53
2017-08-24T15:45:50.330Z,7.67
2017-08-24T15:48:16.732Z,11.90
2017-08-24T15:50:43.123Z,7.80
2017-08-24T15:53:09.602Z,7.87
2017-08-24T15:55:36.068Z,8.53
2017-08-24T15:58:02.663Z,8.43
2017-08-24T16:00:29.267Z,8.60
2017-08-24T16:02:55.704Z,9.27
2017-08-24T16:05:22.096Z,8.40
2017-08-24T16:07:49.253Z,7.97
2017-08-24T16:10:15.673Z,8.37
2017-08-24T16:12:42.862Z,9.00
2017-08-24T16:15:09.375Z,8.57
2017-08-24T16:17:35.764Z,8.47
2017-08-24T16:20:02.157Z,8.73
2017-08-24T16:22:28.638Z,8.30
2017-08-24T16:24:55.011Z,8.50
2017-08-24T16:27:21.394Z,9.20
2017-08-24T16:29:47.807Z,8.23
2017-08-24T16:32:14.239Z,7.83
2017-08-24T16:34:40.672Z,8.30
2017-08-24T16:37:07.084Z,8.37
2017-08-24T16:39:33.504Z,9.27
2017-08-24T16:41:59.975Z,10.80
2017-08-24T16:44:26.383Z,9.83
2017-08-24T16:46:52.775Z,8.40
2017-08-24T16:49:19.179Z,8.00
2017-08-24T16:51:45.616Z,7.80
2017-08-24T16:54:12.015Z,7.27
2017-08-24T16:56:38.391Z,8.00
2017-08-24T16:59:04.815Z,8.43
2017-08-24T17:01:31.268Z,8.67
2017-08-24T17:03:57.670Z,8.20
2017-08-24T17:06:24.067Z,8.20
2017-08-24T17:08:50.472Z,8.00
2017-08-24T17:11:16.985Z,8.43
2017-08-24T17:13:43.706Z,8.57
2017-08-24T17:16:10.159Z,7.77
2017-08-24T17:18:36.535Z,9.13
2017-08-24T17:21:02.927Z,8.13
2017-08-24T17:23:29.335Z,8.80
2017-08-24T17:25:55.736Z,8.70
2017-08-24T17:28:22.193Z,8.83
2017-08-24T17:30:48.595Z,8.57
2017-08-24T17:33:15.083Z,9.43
2017-08-24T17:35:41.513Z,8.90
2017-08-24T17:38:08.390Z,8.77
2017-08-24T17:40:34.851Z,9.00
2017-08-24T17:43:01.291Z,8.80
2017-08-24T17:45:27.691Z,7.90
2017-08-24T17:47:54.054Z,9.53
2017-08-24T17:50:20.487Z,9.80
2017-08-24T17:52:46.920Z,8.87
2017-08-24T17:55:13.336Z,9.57
2017-08-24T17:57:39.796Z,9.83
2017-08-24T18:00:06.227Z,10.07
2017-08-24T18:02:32.704Z,9.80
2017-08-24T18:04:59.168Z,10.30
2017-08-24T18:07:25.570Z,9.60
2017-08-24T18:09:51.940Z,10.07
2017-08-24T18:12:18.388Z,10.07
2017-08-24T18:14:44.794Z,10.30
2017-08-24T18:17:11.163Z,11.43
2017-08-24T18:19:44.496Z,10.27
2017-08-24T18:22:11.000Z,9.60
2017-08-24T18:24:38.278Z,10.73
2017-08-24T18:27:04.659Z,10.07
2017-08-24T18:29:31.131Z,11.10
2017-08-24T18:31:57.632Z,11.23
2017-08-24T18:34:24.043Z,11.13
2017-08-24T18:36:50.430Z,11.10
2017-08-24T18:39:16.851Z,11.07
2017-08-24T18:41:43.283Z,13.50
2017-08-24T18:44:09.698Z,10.57
2017-08-24T18:46:36.091Z,10.47
2017-08-24T18:49:02.525Z,10.60
2017-08-24T18:51:29.370Z,11.00
2017-08-24T18:53:55.821Z,11.17
2017-08-24T18:56:22.207Z,11.13
2017-08-24T18:58:48.612Z,10.13
2017-08-24T19:01:15.037Z,10.77
2017-08-24T19:03:41.470Z,11.10
2017-08-24T19:06:07.856Z,10.50
2017-08-24T19:08:34.239Z,11.10
2017-08-24T19:11:00.666Z,10.80
2017-08-24T19:13:27.115Z,11.10
2017-08-24T19:15:53.564Z,9.70
2017-08-24T19:18:19.947Z,10.80
2017-08-24T19:20:46.395Z,11.30
2017-08-24T19:23:13.010Z,11.10
2017-08-24T19:25:39.431Z,10.73
2017-08-24T19:28:13.527Z,12.53
2017-08-24T19:30:39.946Z,10.97
2017-08-24T19:33:06.371Z,11.20
2017-08-24T19:35:32.775Z,10.30
2017-08-24T19:37:59.152Z,10.80
2017-08-24T19:40:25.945Z,10.17
2017-08-24T19:42:52.536Z,9.30
2017-08-24T19:45:18.922Z,9.33
2017-08-24T19:47:45.312Z,10.63
2017-08-24T19:50:11.715Z,12.77
2017-08-24T19:52:38.119Z,11.07
2017-08-24T19:55:04.532Z,11.07
2017-08-24T19:57:34.238Z,11.70
2017-08-24T20:00:00.676Z,9.83
2017-08-24T20:02:27.230Z,11.13
2017-08-24T20:04:53.623Z,9.13
2017-08-24T20:07:20.049Z,10.20
2017-08-24T20:09:46.533Z,9.80
2017-08-24T20:12:13.340Z,11.70
2017-08-24T20:14:39.788Z,10.70
2017-08-24T20:17:06.171Z,11.80
2017-08-24T20:19:32.571Z,10.53
2017-08-24T20:21:59.025Z,10.97
2017-08-24T20:24:25.431Z,11.17
2017-08-24T20:26:51.798Z,11.07
2017-08-24T20:29:18.218Z,10.90
2017-08-24T20:31:44.635Z,11.27
2017-08-24T20:34:11.074Z,11.17
2017-08-24T20:36:37.461Z,11.23
2017-08-24T20:39:11.761Z,11.50
2017-08-24T20:41:38.243Z,11.00
2017-08-24T20:44:04.643Z,9.97
2017-08-24T20:46:31.072Z,10.70
2017-08-24T20:48:57.490Z,11.77
2017-08-24T20:51:23.975Z,10.17
2017-08-24T20:53:50.347Z,11.10
2017-08-24T20:56:16.768Z,11.47
2017-08-24T20:59:02.576Z,10.03
2017-08-24T21:01:29.118Z,13.27
2017-08-24T21:03:55.556Z,11.87
2017-08-24T21:06:22.253Z,10.83
2017-08-24T21:08:48.752Z,11.00
2017-08-24T21:11:15.324Z,11.33
2017-08-24T21:13:41.727Z,11.23
2017-08-24T21:16:08.103Z,10.00
2017-08-24T21:18:34.536Z,10.10
2017-08-24T21:21:00.976Z,11.20
2017-08-24T21:23:27.375Z,11.60
2017-08-24T21:25:53.784Z,10.73
2017-08-24T21:28:20.146Z,11.63
2017-08-24T21:30:46.532Z,11.40
2017-08-24T21:33:13.007Z,13.03
2017-08-24T21:35:39.423Z,11.20
2017-08-24T21:38:05.815Z,11.37
2017-08-24T21:40:32.228Z,10.90
2017-08-24T21:42:58.672Z,11.07
2017-08-24T21:45:25.055Z,12.93
2017-08-24T21:47:51.438Z,11.53
2017-08-24T21:50:17.851Z,12.70
2017-08-24T21:52:44.245Z,9.73
2017-08-24T22:04:05.272Z,11.33
2017-08-24T22:06:31.659Z,11.93
2017-08-24T23:32:15.811Z,12.03
2017-08-24T23:34:42.183Z,11.20
2017-08-24T23:37:08.593Z,11.53
2017-08-24T23:39:34.964Z,12.60
2017-08-24T23:42:01.400Z,11.77
2017-08-24T23:44:27.820Z,11.90
